createdAt,value
2019-04-05T00:02:32.542Z,99839.34
2019-04-05T00:05:05.633Z,99838.89
2019-04-05T00:07:37.291Z,99835.80
2019-04-05T00:10:14.462Z,99832.18
2019-04-05T00:12:47.233Z,99834.29
2019-04-05T00:15:20.842Z,99834.92
2019-04-05T00:17:52.375Z,99834.29
2019-04-05T00:20:25.048Z,99833.66
2019-04-05T00:22:57.961Z,99836.44
2019-04-05T00:25:29.491Z,99830.66
2019-04-05T00:28:01.187Z,99830.52
2019-04-05T00:30:32.678Z,99828.06
2019-04-05T00:33:05.306Z,99829.28
2019-04-05T00:35:37.986Z,99831.95
2019-04-05T00:38:10.659Z,99831.33
2019-04-05T00:40:43.341Z,99831.67
2019-04-05T00:43:16.034Z,99832.52
2019-04-05T00:45:48.388Z,99828.80
2019-04-05T00:48:21.075Z,99836.71
2019-04-05T00:50:55.467Z,99834.46
2019-04-05T00:53:28.459Z,99832.77
2019-04-05T00:56:01.270Z,99830.45
2019-04-05T00:58:33.948Z,99830.45
2019-04-05T01:01:06.628Z,99832.49
2019-04-05T01:03:39.316Z,99829.81
2019-04-05T01:06:10.756Z,99837.20
2019-04-05T01:08:43.446Z,99837.20
2019-04-05T01:11:14.974Z,99837.56
2019-04-05T01:13:47.569Z,99841.56
2019-04-05T01:16:20.249Z,99834.88
2019-04-05T01:18:51.783Z,99840.58
2019-04-05T01:21:24.381Z,99833.13
2019-04-05T01:23:58.289Z,99838.37
2019-04-05T01:26:31.885Z,99839.14
2019-04-05T01:29:04.578Z,99838.58
2019-04-05T01:31:36.027Z,99845.89
2019-04-05T01:34:08.700Z,99845.30
2019-04-05T01:36:42.301Z,99851.47
2019-04-05T01:39:16.208Z,99843.00
2019-04-05T01:41:48.889Z,99850.58
2019-04-05T01:44:22.501Z,99846.44
2019-04-05T01:46:55.172Z,99841.26
2019-04-05T01:49:27.852Z,99846.17
2019-04-05T01:52:00.530Z,99850.09
2019-04-05T01:54:33.262Z,99856.28
2019-04-05T01:57:04.682Z,99847.67
2019-04-05T01:59:36.151Z,99852.84
2019-04-05T02:02:09.721Z,99860.14
2019-04-05T02:04:42.417Z,99850.81
2019-04-05T02:07:13.848Z,99855.72
2019-04-05T02:09:46.533Z,99858.66
2019-04-05T02:12:19.209Z,99859.38
2019-04-05T02:14:51.891Z,99862.81
2019-04-05T02:17:24.573Z,99866.10
2019-04-05T02:19:56.119Z,99861.05
2019-04-05T02:22:29.620Z,99858.64
2019-04-05T02:25:02.305Z,99869.94
2019-04-05T02:27:36.825Z,99873.45
2019-04-05T02:30:09.586Z,99865.95
2019-04-05T02:32:42.185Z,99870.93
2019-04-05T02:35:14.891Z,99867.33
2019-04-05T02:37:47.648Z,99868.08
2019-04-05T02:40:20.551Z,99866.39
2019-04-05T02:42:53.210Z,99870.98
2019-04-05T02:45:24.744Z,99870.53
2019-04-05T02:48:01.521Z,99866.88
2019-04-05T02:50:34.330Z,99873.55
2019-04-05T02:53:08.401Z,99872.93
2019-04-05T02:55:41.401Z,99877.42
2019-04-05T02:58:14.225Z,99876.53
2019-04-05T03:00:46.906Z,99885.96
2019-04-05T03:03:19.568Z,99881.59
2019-04-05T03:05:52.262Z,99885.82
2019-04-05T03:08:24.932Z,99889.11
2019-04-05T03:11:05.125Z,99886.80
2019-04-05T03:13:39.115Z,99883.15
2019-04-05T03:16:17.948Z,99889.73
2019-04-05T03:18:53.651Z,99892.63
2019-04-05T03:21:25.078Z,99893.78
2019-04-05T03:23:56.774Z,99886.44
2019-04-05T03:26:32.273Z,99886.83
2019-04-05T03:29:07.112Z,99896.55
2019-04-05T03:31:39.652Z,99904.58
2019-04-05T03:34:12.321Z,99907.88
2019-04-05T03:36:44.998Z,99910.19
2019-04-05T03:39:17.676Z,99907.28
2019-04-05T03:41:50.371Z,99904.63
2019-04-05T03:44:23.110Z,99909.70
2019-04-05T03:46:57.451Z,99909.23
2019-04-05T03:49:29.641Z,99910.31
2019-04-05T03:52:01.116Z,99916.86
2019-04-05T03:54:33.015Z,99918.41
2019-04-05T03:57:05.703Z,99917.41
2019-04-05T03:59:38.192Z,99919.10
2019-04-05T04:02:11.184Z,99914.97
2019-04-05T04:04:43.867Z,99908.50
2019-04-05T04:07:15.307Z,99908.74
2019-04-05T04:09:46.833Z,99918.26
2019-04-05T04:12:18.256Z,99915.56
2019-04-05T04:14:49.686Z,99917.36
2019-04-05T04:17:22.657Z,99923.25
2019-04-05T04:19:56.261Z,99923.49
2019-04-05T04:22:29.686Z,99930.50
2019-04-05T04:25:01.014Z,99932.92
2019-04-05T04:27:32.626Z,99929.35
2019-04-05T04:30:06.475Z,99927.57
2019-04-05T04:32:39.449Z,99928.42
2019-04-05T04:35:12.032Z,99933.42
2019-04-05T04:37:44.705Z,99931.52
2019-04-05T04:40:17.393Z,99936.23
2019-04-05T04:42:50.544Z,99940.63
2019-04-05T04:45:23.061Z,99932.03
2019-04-05T04:47:55.744Z,99942.10
2019-04-05T04:50:28.430Z,99939.19
2019-04-05T04:52:59.866Z,99943.92
2019-04-05T04:55:33.485Z,99946.38
2019-04-05T04:58:04.996Z,99952.81
2019-04-05T05:00:38.841Z,99944.23
2019-04-05T05:03:11.506Z,99954.78
2019-04-05T05:05:44.201Z,99949.67
2019-04-05T05:08:16.899Z,99951.36
2019-04-05T05:10:48.388Z,99954.86
2019-04-05T05:13:19.874Z,99964.31
2019-04-05T05:15:51.323Z,99957.17
2019-04-05T05:18:23.457Z,99965.14
2019-04-05T05:20:56.285Z,99966.72
2019-04-05T05:23:27.729Z,99966.56
2019-04-05T05:26:00.415Z,99966.64
2019-04-05T05:28:33.087Z,99966.11
2019-04-05T05:31:05.782Z,99971.23
2019-04-05T05:33:37.221Z,99967.48
2019-04-05T05:36:10.573Z,99969.69
2019-04-05T05:38:43.510Z,99971.02
2019-04-05T05:41:16.185Z,99981.29
2019-04-05T05:43:49.334Z,99976.97
2019-04-05T05:46:22.173Z,99977.08
2019-04-05T05:48:53.608Z,99981.53
2019-04-05T05:51:26.285Z,99976.53
2019-04-05T05:53:58.968Z,99978.41
2019-04-05T05:56:31.653Z,99978.19
2019-04-05T05:59:05.256Z,99979.97
2019-04-05T06:01:37.927Z,99978.91
2019-04-05T06:04:12.781Z,99980.63
2019-04-05T06:06:43.941Z,99984.99
2019-04-05T06:09:15.672Z,99981.95
2019-04-05T06:11:48.370Z,99987.89
2019-04-05T06:14:21.434Z,99984.52
2019-04-05T06:16:54.950Z,99994.47
2019-04-05T06:19:26.451Z,99990.76
2019-04-05T06:21:59.089Z,99989.98
2019-04-05T06:24:30.510Z,99988.33
2019-04-05T06:27:03.210Z,99992.40
2019-04-05T06:29:35.433Z,99996.08
2019-04-05T06:32:20.480Z,100003.44
2019-04-05T06:34:55.067Z,99999.17
2019-04-05T06:37:26.573Z,100001.97
2019-04-05T06:40:05.305Z,100002.91
2019-04-05T06:42:42.061Z,100001.58
2019-04-05T06:45:13.494Z,100007.43
2019-04-05T06:47:44.978Z,100009.78
2019-04-05T06:50:17.612Z,100013.39
2019-04-05T06:52:50.023Z,100014.31
2019-04-05T06:55:22.972Z,100015.38
2019-04-05T06:57:54.783Z,100017.83
2019-04-05T07:00:30.643Z,100012.84
2019-04-05T07:03:03.509Z,100016.66
2019-04-05T07:05:36.828Z,100021.56
2019-04-05T07:08:13.287Z,100032.56
2019-04-05T07:10:50.497Z,100028.30
2019-04-05T07:13:23.677Z,100022.20
2019-04-05T07:15:59.987Z,100030.66
2019-04-05T07:18:37.449Z,100023.69
2019-04-05T07:21:13.524Z,100023.30
2019-04-05T07:23:47.064Z,100017.84
2019-04-05T07:26:20.838Z,100028.29
2019-04-05T07:28:52.998Z,100022.63
2019-04-05T07:31:24.441Z,100032.48
2019-04-05T07:33:57.229Z,100036.03
2019-04-05T07:36:29.796Z,100042.28
2019-04-05T07:39:02.566Z,100037.14
2019-04-05T07:41:35.172Z,100027.67
2019-04-05T07:44:06.998Z,100036.29
2019-04-05T07:46:39.902Z,100041.05
2019-04-05T07:49:12.626Z,100055.45
2019-04-05T07:51:44.071Z,100041.67
2019-04-05T07:54:15.503Z,100043.72
2019-04-05T07:56:46.939Z,100048.78
2019-04-05T07:59:21.025Z,100044.08
2019-04-05T08:01:53.836Z,100055.30
2019-04-05T08:04:27.760Z,100050.70
2019-04-05T08:07:01.207Z,100047.53
2019-04-05T08:09:33.762Z,100052.91
2019-04-05T08:12:05.929Z,100058.55
2019-04-05T08:14:45.562Z,100054.55
2019-04-05T08:17:13.911Z,100056.19
2019-04-05T08:19:47.527Z,100055.57
2019-04-05T08:22:22.789Z,100064.57
2019-04-05T08:24:54.470Z,100063.97
2019-04-05T08:27:29.795Z,100060.87
2019-04-05T08:30:08.456Z,100063.17
2019-04-05T08:32:45.591Z,100060.81
2019-04-05T08:35:17.129Z,100071.80
2019-04-05T08:37:53.083Z,100064.39
2019-04-05T08:40:27.079Z,100066.70
2019-04-05T08:42:58.530Z,100068.78
2019-04-05T08:45:31.228Z,100067.98
2019-04-05T08:48:02.667Z,100063.97
2019-04-05T08:50:34.268Z,100065.27
2019-04-05T08:53:07.418Z,100058.52
2019-04-05T08:55:38.857Z,100055.06
2019-04-05T08:58:11.543Z,100060.48
2019-04-05T09:00:42.997Z,100059.50
2019-04-05T09:03:16.732Z,100052.34
2019-04-05T09:05:50.502Z,100057.22
2019-04-05T09:08:21.951Z,100061.89
2019-04-05T09:10:56.165Z,100047.27
2019-04-05T09:13:29.771Z,100051.18
2019-04-05T09:16:01.232Z,100047.91
2019-04-05T09:18:37.806Z,100051.56
2019-04-05T09:21:17.903Z,100044.00
2019-04-05T09:23:51.872Z,100043.59
2019-04-05T09:26:25.763Z,100049.05
2019-04-05T09:28:59.136Z,100049.11
2019-04-05T09:31:31.740Z,100039.37
2019-04-05T09:34:05.398Z,100046.63
2019-04-05T09:36:38.024Z,100042.32
2019-04-05T09:39:15.664Z,100047.36
2019-04-05T09:41:51.428Z,100059.56
2019-04-05T09:44:23.851Z,100054.27
2019-04-05T09:47:07.980Z,100052.88
2019-04-05T09:49:40.481Z,100054.49
2019-04-05T09:52:12.867Z,100060.84
2019-04-05T09:54:44.308Z,100066.55
2019-04-05T09:57:15.755Z,100054.41
2019-04-05T09:59:47.197Z,100057.22
2019-04-05T10:02:19.884Z,100055.06
2019-04-05T10:04:51.335Z,100057.66
2019-04-05T10:07:22.788Z,100061.92
2019-04-05T10:09:55.171Z,100060.41
2019-04-05T10:12:26.617Z,100070.49
2019-04-05T10:14:58.065Z,100056.72
2019-04-05T10:17:29.524Z,100064.72
2019-04-05T10:20:00.969Z,100068.14
2019-04-05T10:22:32.427Z,100062.64
2019-04-05T10:25:06.240Z,100065.52
2019-04-05T10:27:37.767Z,100069.11
2019-04-05T10:30:12.719Z,100060.17
2019-04-05T10:32:46.064Z,100058.28
2019-04-05T10:35:18.884Z,100060.87
2019-04-05T10:37:50.346Z,100057.55
2019-04-05T10:40:21.808Z,100066.23
2019-04-05T10:42:53.238Z,100061.97
2019-04-05T10:45:28.228Z,100049.34
2019-04-05T10:47:59.895Z,100051.87
2019-04-05T10:50:31.319Z,100057.09
2019-04-05T10:53:02.735Z,100060.33
2019-04-05T10:55:34.220Z,100050.89
2019-04-05T10:58:06.398Z,100049.40
2019-04-05T11:00:44.840Z,100050.86
2019-04-05T11:03:15.604Z,100046.03
2019-04-05T11:05:49.176Z,100048.62
2019-04-05T11:08:20.354Z,100049.64
2019-04-05T11:10:51.823Z,100055.40
2019-04-05T11:13:24.538Z,100052.16
2019-04-05T11:15:55.954Z,100051.91
2019-04-05T11:18:27.393Z,100047.78
2019-04-05T11:20:58.850Z,100050.16
2019-04-05T11:23:31.533Z,100054.77
2019-04-05T11:26:04.067Z,100060.38
2019-04-05T11:28:36.872Z,100053.02
2019-04-05T11:31:09.550Z,100051.86
2019-04-05T11:33:41.088Z,100048.03
2019-04-05T11:36:14.399Z,100049.63
2019-04-05T11:38:49.892Z,100045.52
2019-04-05T11:41:29.052Z,100052.09
2019-04-05T11:47:05.284Z,100045.70
2019-04-05T11:49:38.792Z,100047.55
2019-04-05T11:52:12.819Z,100046.79
2019-04-05T11:54:45.943Z,100048.91
2019-04-05T11:57:17.548Z,100052.45
2019-04-05T11:59:50.230Z,100049.16
2019-04-05T12:02:27.247Z,100040.00
2019-04-05T12:05:00.576Z,100044.72
2019-04-05T12:07:31.978Z,100051.80
2019-04-05T12:10:03.595Z,100044.67
2019-04-05T12:12:37.306Z,100042.89
2019-04-05T12:15:11.529Z,100040.19
2019-04-05T12:17:42.960Z,100042.96
2019-04-05T12:20:15.342Z,100038.69
2019-04-05T12:22:46.780Z,100034.44
2019-04-05T12:25:18.254Z,100031.53
2019-04-05T12:28:07.025Z,100035.92
2019-04-05T12:30:46.126Z,100040.51
2019-04-05T12:33:20.329Z,100019.80
2019-04-05T12:35:56.667Z,100022.73
2019-04-05T12:38:32.658Z,100024.38
2019-04-05T12:41:05.758Z,100018.59
2019-04-05T12:43:37.192Z,100034.00
2019-04-05T12:46:10.383Z,100021.75
2019-04-05T12:48:45.471Z,100015.99
2019-04-05T12:51:17.357Z,100028.01
2019-04-05T12:53:48.880Z,100024.05
2019-04-05T12:56:20.559Z,100028.55
2019-04-05T12:58:53.642Z,100019.34
2019-04-05T13:01:26.534Z,100021.33
2019-04-05T13:03:59.175Z,100020.76
2019-04-05T13:06:31.604Z,100019.76
2019-04-05T13:09:05.426Z,100021.48
2019-04-05T13:11:36.644Z,100019.58
2019-04-05T13:14:15.249Z,100012.16
2019-04-05T13:16:49.672Z,100007.44
2019-04-05T13:19:22.956Z,100011.06
2019-04-05T13:21:54.406Z,100001.86
2019-04-05T13:24:25.961Z,100008.31
2019-04-05T13:27:02.145Z,100006.95
2019-04-05T13:29:37.907Z,100004.27
2019-04-05T13:32:10.974Z,100009.06
2019-04-05T13:34:42.470Z,100004.78
2019-04-05T13:37:20.582Z,100005.09
2019-04-05T13:39:49.636Z,100016.43
2019-04-05T13:42:22.392Z,100013.52
2019-04-05T13:44:54.437Z,100013.29
2019-04-05T13:47:25.869Z,100014.02
2019-04-05T13:49:57.764Z,100015.45
2019-04-05T13:52:29.349Z,100010.76
2019-04-05T13:55:02.047Z,100006.83
2019-04-05T13:57:41.339Z,100012.27
2019-04-05T14:00:17.551Z,100018.03
2019-04-05T14:02:50.111Z,100019.69
2019-04-05T14:05:22.797Z,100018.78
2019-04-05T14:08:09.076Z,100008.43
2019-04-05T14:10:27.844Z,100012.59
2019-04-05T14:13:00.891Z,100012.81
2019-04-05T14:15:34.205Z,100016.02
2019-04-05T14:18:05.759Z,100010.41
2019-04-05T14:20:37.120Z,100007.53
2019-04-05T14:23:08.577Z,100008.79
2019-04-05T14:25:41.220Z,99997.66
2019-04-05T14:28:12.651Z,100001.66
2019-04-05T14:30:44.111Z,100007.30
2019-04-05T14:33:15.567Z,100003.56
2019-04-05T14:35:47.094Z,100001.81
2019-04-05T14:38:19.693Z,100002.13
2019-04-05T14:40:51.148Z,100005.20
2019-04-05T14:43:22.596Z,100011.23
2019-04-05T14:45:54.043Z,100014.09
2019-04-05T14:48:27.725Z,100004.98
2019-04-05T14:51:01.254Z,100012.80
2019-04-05T14:53:32.818Z,100009.61
2019-04-05T14:56:09.606Z,100010.64
2019-04-05T14:58:45.164Z,100006.72
2019-04-05T15:01:18.022Z,100005.19
2019-04-05T15:03:49.719Z,100001.75
2019-04-05T15:06:21.387Z,100007.75
2019-04-05T15:08:54.349Z,100005.52
2019-04-05T15:11:32.392Z,100006.55
2019-04-05T15:14:05.332Z,100003.13
2019-04-05T15:16:36.985Z,100008.41
2019-04-05T15:19:08.430Z,100005.20
2019-04-05T15:21:39.920Z,100000.66
2019-04-05T15:24:15.957Z,100007.59
2019-04-05T15:26:47.104Z,100003.72
2019-04-05T15:29:18.534Z,100011.42
2019-04-05T15:31:56.121Z,100001.05
2019-04-05T15:34:29.264Z,99999.30
2019-04-05T15:37:02.306Z,100005.48
2019-04-05T15:39:38.189Z,100001.09
2019-04-05T15:42:09.636Z,100004.45
2019-04-05T15:44:41.068Z,100005.72
2019-04-05T15:47:13.733Z,100006.92
2019-04-05T15:49:46.765Z,100005.73
2019-04-05T15:52:19.463Z,100012.64
2019-04-05T15:54:52.383Z,100017.63
2019-04-05T15:57:28.480Z,100026.63
2019-04-05T16:00:03.846Z,100034.18
2019-04-05T16:02:35.979Z,100043.13
2019-04-05T16:05:10.176Z,100044.86
2019-04-05T16:07:41.635Z,100051.38
2019-04-05T16:10:14.290Z,100066.93
2019-04-05T16:12:45.788Z,100072.17
2019-04-05T16:15:17.222Z,100078.55
2019-04-05T16:17:48.660Z,100076.05
2019-04-05T16:20:20.369Z,100090.88
2019-04-05T16:22:51.935Z,100070.66
2019-04-05T16:25:23.376Z,100066.22
2019-04-05T16:27:57.647Z,100060.32
2019-04-05T16:30:31.826Z,100059.35
2019-04-05T16:33:03.331Z,100057.98
2019-04-05T16:35:35.178Z,100059.69
2019-04-05T16:38:06.704Z,100061.03
2019-04-05T16:40:39.477Z,100060.36
2019-04-05T16:43:12.237Z,100062.88
2019-04-05T16:45:43.906Z,100071.16
2019-04-05T16:48:16.630Z,100066.75
2019-04-05T16:50:49.824Z,100065.39
2019-04-05T16:53:24.053Z,100074.00
2019-04-05T16:55:57.135Z,100075.86
2019-04-05T16:58:28.508Z,100073.47
2019-04-05T17:00:59.961Z,100072.80
2019-04-05T17:03:34.158Z,100074.80
2019-04-05T17:06:05.624Z,100073.77
2019-04-05T17:08:38.281Z,100070.70
2019-04-05T17:11:10.959Z,100070.33
2019-04-05T17:13:42.420Z,100069.65
2019-04-05T17:16:13.877Z,100080.39
2019-04-05T17:18:46.894Z,100072.60
2019-04-05T17:21:19.873Z,100074.23
2019-04-05T17:23:51.620Z,100075.85
2019-04-05T17:26:23.081Z,100076.47
2019-04-05T17:28:55.731Z,100076.25
2019-04-05T17:31:28.745Z,100079.25
2019-04-05T17:34:01.530Z,100086.25
2019-04-05T17:36:36.277Z,100091.45
2019-04-05T17:39:10.244Z,100093.80
2019-04-05T17:41:43.187Z,100094.87
2019-04-05T17:44:16.755Z,100102.73
2019-04-05T17:46:48.199Z,100103.03
2019-04-05T17:49:19.674Z,100109.07
2019-04-05T17:51:53.956Z,100110.02
2019-04-05T17:54:25.338Z,100118.39
2019-04-05T17:56:59.608Z,100123.02
2019-04-05T17:59:32.798Z,100121.65
2019-04-05T18:02:04.321Z,100126.97
2019-04-05T18:04:37.290Z,100135.41
2019-04-05T18:07:09.925Z,100135.09
2019-04-05T18:09:46.722Z,100132.06
2019-04-05T18:12:20.904Z,100136.09
2019-04-05T18:14:53.832Z,100139.92
2019-04-05T18:17:28.776Z,100138.39
2019-04-05T18:20:01.021Z,100142.39
2019-04-05T18:22:32.467Z,100147.36
2019-04-05T18:25:07.967Z,100148.36
2019-04-05T18:27:40.620Z,100155.37
2019-04-05T18:30:14.042Z,100149.30
2019-04-05T18:32:45.718Z,100151.23
2019-04-05T18:35:17.086Z,100150.89
2019-04-05T18:37:48.559Z,100154.23
2019-04-05T18:40:20.046Z,100154.61
2019-04-05T18:42:52.986Z,100155.95
2019-04-05T18:45:24.777Z,100147.89
2019-04-05T18:48:00.691Z,100156.77
2019-04-05T18:50:32.342Z,100158.45
2019-04-05T18:53:03.685Z,100160.61
2019-04-05T18:55:46.468Z,100163.53
2019-04-05T18:58:17.977Z,100162.84
2019-04-05T19:00:49.422Z,100159.81
2019-04-05T19:03:20.907Z,100167.84
2019-04-05T19:05:55.436Z,100167.84
2019-04-05T19:08:39.117Z,100160.20
2019-04-05T19:11:01.662Z,100167.62
2019-04-05T19:13:34.380Z,100172.41
2019-04-05T19:16:05.832Z,100171.27
2019-04-05T19:18:38.976Z,100174.68
2019-04-05T19:21:12.458Z,100175.75
2019-04-05T19:23:50.730Z,100172.34
2019-04-05T19:26:18.437Z,100175.09
2019-04-05T19:28:51.029Z,100172.41
2019-04-05T19:49:27.567Z,100171.16
2019-04-05T19:52:00.214Z,100175.14
2019-04-05T19:54:34.413Z,100174.09
2019-04-05T19:57:08.067Z,100173.63
2019-04-05T19:59:45.601Z,100176.55
2019-04-05T20:02:18.308Z,100176.80
2019-04-05T20:04:49.795Z,100180.05
2019-04-05T20:07:25.999Z,100177.41
2019-04-05T20:10:00.143Z,100174.50
2019-04-05T20:12:33.947Z,100187.81
2019-04-05T20:15:11.273Z,100187.73
2019-04-05T20:17:43.609Z,100188.12
2019-04-05T20:20:26.027Z,100178.09
2019-04-05T20:23:08.688Z,100185.44
2019-04-05T20:25:42.650Z,100182.66
2019-04-05T20:28:14.305Z,100185.09
2019-04-05T20:30:51.708Z,100185.28
2019-04-05T20:33:25.411Z,100189.11
2019-04-05T20:36:07.488Z,100191.39
2019-04-05T20:38:42.023Z,100189.40
2019-04-05T20:41:13.678Z,100191.73
2019-04-05T20:43:48.998Z,100190.61
2019-04-05T20:46:22.138Z,100197.11
2019-04-05T20:48:56.922Z,100189.54
2019-04-05T20:51:30.418Z,100191.13
2019-04-05T20:54:07.059Z,100195.16
2019-04-05T20:56:41.568Z,100191.99
2019-04-05T20:59:16.117Z,100190.19
2019-04-05T21:01:52.056Z,100191.88
2019-04-05T21:04:29.443Z,100194.17
2019-04-05T21:07:06.710Z,100199.17
2019-04-05T21:09:42.993Z,100193.88
2019-04-05T21:12:15.945Z,100201.02
2019-04-05T21:14:49.082Z,100201.37
2019-04-05T21:17:32.746Z,100208.77
2019-04-05T21:20:10.294Z,100196.53
2019-04-05T21:22:42.928Z,100204.34
2019-04-05T21:25:16.397Z,100202.91
2019-04-05T21:27:48.906Z,100205.32
2019-04-05T21:30:20.371Z,100206.58
2019-04-05T21:32:51.808Z,100214.52
2019-04-05T21:35:23.258Z,100205.84
2019-04-05T21:37:54.723Z,100213.61
2019-04-05T21:40:27.389Z,100213.45
2019-04-05T21:42:58.850Z,100221.02
2019-04-05T21:45:30.304Z,100219.06
2019-04-05T21:48:01.737Z,100220.84
2019-04-05T21:50:35.064Z,100225.52
2019-04-05T21:53:06.519Z,100224.33
2019-04-05T21:55:37.974Z,100226.68
2019-04-05T21:58:12.469Z,100231.09
2019-04-05T22:00:46.482Z,100236.48
2019-04-05T22:03:22.489Z,100229.75
2019-04-05T22:05:55.123Z,100226.23
2019-04-05T22:08:27.523Z,100231.97
2019-04-05T22:11:00.188Z,100235.42
2019-04-05T22:13:31.630Z,100234.34
2019-04-05T22:16:03.069Z,100230.46
2019-04-05T22:18:36.970Z,100236.16
2019-04-05T22:21:10.066Z,100229.02
2019-04-05T22:23:41.711Z,100233.27
2019-04-05T22:26:13.272Z,100229.63
2019-04-05T22:28:45.851Z,100232.06
2019-04-05T22:31:18.538Z,100231.94
2019-04-05T22:33:49.979Z,100237.14
2019-04-05T22:36:22.659Z,100238.72
2019-04-05T22:38:55.035Z,100238.97
2019-04-05T22:41:27.246Z,100237.86
2019-04-05T22:44:00.087Z,100232.41
2019-04-05T22:46:32.889Z,100235.55
2019-04-05T22:49:04.527Z,100235.33
2019-04-05T22:51:36.908Z,100231.30
2019-04-05T22:54:08.350Z,100234.81
2019-04-05T22:56:42.262Z,100231.78
2019-04-05T22:59:13.734Z,100233.25
2019-04-05T23:01:47.317Z,100230.19
2019-04-05T23:04:20.301Z,100233.59
2019-04-05T23:06:52.986Z,100227.13
2019-04-05T23:09:24.418Z,100235.75
2019-04-05T23:11:57.405Z,100232.23
2019-04-05T23:14:30.096Z,100232.32
2019-04-05T23:17:01.552Z,100235.23
2019-04-05T23:19:34.533Z,100238.02
2019-04-05T23:22:05.988Z,100238.71
2019-04-05T23:24:37.428Z,100240.61
2019-04-05T23:27:10.137Z,100242.10
2019-04-05T23:29:41.566Z,100243.39
2019-04-05T23:32:13.019Z,100243.31
2019-04-05T23:34:44.491Z,100241.89
2019-04-05T23:37:15.938Z,100240.41
2019-04-05T23:39:47.425Z,100243.80
2019-04-05T23:42:22.047Z,100238.59
2019-04-05T23:44:54.931Z,100239.56
2019-04-05T23:47:26.690Z,100237.95
2019-04-05T23:49:59.328Z,100236.97
2019-04-05T23:52:32.327Z,100238.50
2019-04-05T23:55:04.230Z,100235.20
2019-04-05T23:57:37.981Z,100234.63
